METAR AND TAF INFORMATION
METAR FOR KEYW
ADDS - METARS form results

(0030 UTC 16 January 2019)
Data provider http://aviationweather.gov/metar/data/
 
METAR text: KEYW 160007Z 34012KT 10SM SCT027 18/12 A3016 RMK AO2 T01780122 $
Conditions at: KEYW (KEY WEST , FL, US) observed 0007 UTC 16 January 2019
Temperature: 17.8°C (64°F)
Dewpoint: 12.2°C (54°F) [RH = 70%]
Pressure (altimeter): 30.16 inches Hg (1021.4 mb)
Winds: from the NNW (340 degrees) at 14 MPH (12 knots; 6.2 m/s)
Visibility: 10 or more miles (16+ km)
Ceiling: at least 12,000 feet AGL
Clouds: scattered clouds at 2700 feet AGL
Weather:
SOME DATA ABOVE MAY BE INACCURATE!!!
"$" is an indication the sensor requires maintenance

METAR text: KEYW 160000Z 34012KT 10SM BKN027 18/12 A3015 RMK AO2 T01780122 $
Conditions at: KEYW (KEY WEST , FL, US) observed 0000 UTC 16 January 2019
Temperature: 17.8°C (64°F)
Dewpoint: 12.2°C (54°F) [RH = 70%]
Pressure (altimeter): 30.15 inches Hg (1021.1 mb)
Winds: from the NNW (340 degrees) at 14 MPH (12 knots; 6.2 m/s)
Visibility: 10 or more miles (16+ km)
Ceiling: 2700 feet AGL
Clouds: broken clouds at 2700 feet AGL
Weather:
SOME DATA ABOVE MAY BE INACCURATE!!!
"$" is an indication the sensor requires maintenance

METAR text: KEYW 152353Z 33011G17KT 10SM SCT032 18/12 A3016 RMK AO2 SLP211 T01780122 10206 20178 50006 $
Conditions at: KEYW (KEY WEST , FL, US) observed 2353 UTC 15 January 2019
Temperature: 17.8°C (64°F)
Dewpoint: 12.2°C (54°F) [RH = 70%]
Pressure (altimeter): 30.16 inches Hg (1021.4 mb)
[Sea-level pressure: 1021.1 mb]
Winds: from the NNW (330 degrees) at 13 MPH (11 knots; 5.7 m/s)
gusting to 20 MPH (17 knots; 8.7 m/s)
Visibility: 10 or more miles (16+ km)
Ceiling: at least 12,000 feet AGL
Clouds: scattered clouds at 3200 feet AGL
Weather:
SOME DATA ABOVE MAY BE INACCURATE!!!
"$" is an indication the sensor requires maintenance

Forecast for: KEYW (KEY WEST , FL, US)
Text: KEYW 160001Z 1600/1624 34012G18KT P6SM SCT030
Forecast period: 0000 to 0300 UTC 16 January 2019
Forecast type: FROM: standard forecast or significant change
Winds: from the NNW (340 degrees) at 14 MPH (12 knots; 6.2 m/s)
gusting to 21 MPH (18 knots; 9.3 m/s)
Visibility: 6 or more miles 10+ km)
Ceiling: at least 12,000 feet AGL
Clouds: scattered clouds at 3000 feet AGL
Weather: no significant weather forecast for this period
Text: TEMPO 1600/1603 BKN028
Forecast period: 0000 to 0300 UTC 16 January 2019
Forecast type: TEMPORARY: The following changes expected for less than half the time period
Visibility: missing
Ceiling: 2800 feet AGL
Clouds: broken clouds at 2800 feet AGL
Weather: no significant weather forecast for this period
Text: FM160300 36010KT P6SM SCT030
Forecast period: 0300 to 1400 UTC 16 January 2019
Forecast type: FROM: standard forecast or significant change
Winds: from the N (360 degrees) at 12 MPH (10 knots; 5.1 m/s)
Visibility: 6 or more miles 10+ km)
Ceiling: at least 12,000 feet AGL
Clouds: scattered clouds at 3000 feet AGL
Weather: no significant weather forecast for this period
Text: FM161400 02010KT P6SM FEW030
Forecast period: 1400 UTC 16 January 2019 to 0000 UTC 17 January 2019
Forecast type: FROM: standard forecast or significant change
Winds: from the NNE (20 degrees) at 12 MPH (10 knots; 5.1 m/s)
Visibility: 6 or more miles 10+ km)
Ceiling: at least 12,000 feet AGL
Clouds: few clouds at 3000 feet AGL
Weather: no significant weather forecast for this period

 AIRPORT MAP

 RUNWAY INFORMATION
Runway 09 Runway length 4801 ft Runway width 100 ft
Runway elevation 3 ft Runway displaced threshold 0 ft Runway heading 89
Runway 27 Runway length 4801 ft Runway width 100 ft
Runway elevation 3 ft Runway displaced threshold 0 ft Runway heading 269

 AIRPORT FREQUENCIES
Type A/D Name NAVY KEY W Frequency 124.45 MHZ
Type ASOS Name ASOS Frequency 119.65 MHZ
Type ATIS Name ATIS Frequency 119.675 MHZ
Type CLD Name CLNC DEL Frequency 121.9 MHZ
Type CTAF Name CTAF Frequency 118.2 MHZ
Type FSS Name MIAMI RDO Frequency 122.2 MHZ
Type GND Name GND Frequency 121.9 MHZ
Type TWR Name TWR Frequency 118.2 MHZ
Type UNIC Name UNICOM Frequency 122.95 MHZ

 AIRPORT NEAR NAVIGATION AIDS
Type NDB Name Fish Hook Frequency 332 KHZ



Powered by Heron Airways VA. All Rights Reserved © 2009 [v2.6.2]